EJU186H LFLL-LFKB
Flight info
| Callsign | EJU186H |
|---|---|
| Flight time | 0h 52m |
| Altitude | 35000 |
| Route | ROMAM T43 BEPER DCT RETNO DCT KOLON DCT NARTI UP991 NIRDO |
| Aircraft | A320/M-SDE3FGHIRWY/LB1 |
Departure
| Time | 2026-04-25 13:21 |
|---|---|
| Airport | Lyon Saint-Exupéry Airport (LFLL) |
Arrival
| Time | 2026-04-25 14:13 |
|---|---|
| Airport | Bastia-Poretta International airport (LFKB) |
| Time | Latitude | Longitude | Altitude | Speed | Heading |
|---|---|---|---|---|---|
| 2026-04-25 12:48 | 45.71517 | 5.08177 | 802 ft | 0 kts | 15° |
| 2026-04-25 13:09 | 45.71503 | 5.08171 | 802 ft | 4 kts | 15° |
| 2026-04-25 13:09 | 45.71477 | 5.08161 | 802 ft | 3 kts | 15° |
| 2026-04-25 13:09 | 45.71456 | 5.08153 | 802 ft | 4 kts | 29° |
| 2026-04-25 13:10 | 45.71440 | 5.08129 | 802 ft | 4 kts | 94° |
| 2026-04-25 13:10 | 45.71445 | 5.08098 | 802 ft | 1 kts | 104° |
| 2026-04-25 13:10 | 45.71445 | 5.08097 | 802 ft | 0 kts | 104° |
| 2026-04-25 13:14 | 45.71441 | 5.08118 | 802 ft | 6 kts | 104° |
| 2026-04-25 13:14 | 45.71427 | 5.08195 | 802 ft | 8 kts | 105° |
| 2026-04-25 13:14 | 45.71415 | 5.08261 | 803 ft | 6 kts | 105° |
| 2026-04-25 13:15 | 45.71406 | 5.08314 | 803 ft | 5 kts | 98° |
| 2026-04-25 13:15 | 45.71407 | 5.08351 | 804 ft | 4 kts | 82° |
| 2026-04-25 13:15 | 45.71412 | 5.08406 | 805 ft | 6 kts | 83° |
| 2026-04-25 13:15 | 45.71416 | 5.08468 | 807 ft | 7 kts | 84° |
| 2026-04-25 13:16 | 45.71456 | 5.08522 | 807 ft | 11 kts | 11° |
| 2026-04-25 13:16 | 45.71554 | 5.08512 | 803 ft | 13 kts | 355° |
| 2026-04-25 13:16 | 45.71599 | 5.08573 | 804 ft | 9 kts | 89° |
| 2026-04-25 13:16 | 45.71602 | 5.08645 | 806 ft | 5 kts | 86° |
| 2026-04-25 13:17 | 45.71604 | 5.08697 | 807 ft | 6 kts | 86° |
| 2026-04-25 13:17 | 45.71608 | 5.08760 | 809 ft | 7 kts | 84° |
| 2026-04-25 13:17 | 45.71611 | 5.08796 | 812 ft | 0 kts | 85° |
| 2026-04-25 13:19 | 45.71611 | 5.08799 | 812 ft | 1 kts | 85° |
| 2026-04-25 13:19 | 45.71611 | 5.08802 | 812 ft | 2 kts | 85° |
| 2026-04-25 13:20 | 45.71617 | 5.08907 | 814 ft | 10 kts | 85° |
| 2026-04-25 13:20 | 45.71656 | 5.08965 | 815 ft | 9 kts | 359° |
| 2026-04-25 13:20 | 45.71741 | 5.08952 | 810 ft | 26 kts | 354° |
| 2026-04-25 13:20 | 45.72193 | 5.08897 | 804 ft | 101 kts | 355° |
| 2026-04-25 13:21 | 45.73093 | 5.08786 | 793 ft | 156 kts | 354° |
| 2026-04-25 13:21 | 45.74215 | 5.08644 | 1412 ft | 161 kts | 355° |
| 2026-04-25 13:21 | 45.75328 | 5.08512 | 2267 ft | 160 kts | 355° |
| 2026-04-25 13:21 | 45.76433 | 5.08381 | 3104 ft | 160 kts | 354° |
| 2026-04-25 13:22 | 45.77544 | 5.08244 | 3993 ft | 161 kts | 354° |
| 2026-04-25 13:22 | 45.78683 | 5.08103 | 4548 ft | 175 kts | 354° |
| 2026-04-25 13:22 | 45.79978 | 5.07941 | 4898 ft | 198 kts | 354° |
| 2026-04-25 13:23 | 45.82935 | 5.08165 | 5833 ft | 244 kts | 28° |
| 2026-04-25 13:23 | 45.84095 | 5.09972 | 6660 ft | 256 kts | 65° |
| 2026-04-25 13:23 | 45.84288 | 5.12518 | 7523 ft | 265 kts | 102° |
| 2026-04-25 13:23 | 45.83464 | 5.14942 | 8213 ft | 283 kts | 128° |
| 2026-04-25 13:24 | 45.81904 | 5.16735 | 8955 ft | 295 kts | 155° |
| 2026-04-25 13:24 | 45.79896 | 5.17354 | 9840 ft | 300 kts | 179° |
| 2026-04-25 13:24 | 45.77773 | 5.17348 | 10465 ft | 315 kts | 181° |
| 2026-04-25 13:24 | 45.75583 | 5.17307 | 10782 ft | 339 kts | 181° |
| 2026-04-25 13:25 | 45.73154 | 5.17248 | 11272 ft | 354 kts | 181° |
| 2026-04-25 13:25 | 45.70661 | 5.17192 | 12020 ft | 361 kts | 181° |
| 2026-04-25 13:25 | 45.68138 | 5.17146 | 12828 ft | 365 kts | 181° |
| 2026-04-25 13:25 | 45.65760 | 5.17111 | 13550 ft | 370 kts | 181° |
| 2026-04-25 13:26 | 45.63116 | 5.17076 | 14290 ft | 374 kts | 181° |
| 2026-04-25 13:26 | 45.60498 | 5.17043 | 14976 ft | 379 kts | 181° |
| 2026-04-25 13:26 | 45.57846 | 5.17010 | 15664 ft | 383 kts | 181° |
| 2026-04-25 13:26 | 45.55244 | 5.16973 | 16335 ft | 387 kts | 181° |
| 2026-04-25 13:27 | 45.52453 | 5.16932 | 17033 ft | 392 kts | 181° |
| 2026-04-25 13:27 | 45.49712 | 5.16892 | 17689 ft | 396 kts | 181° |
| 2026-04-25 13:27 | 45.46941 | 5.16854 | 18329 ft | 400 kts | 181° |
| 2026-04-25 13:27 | 45.45091 | 5.16830 | 18707 ft | 403 kts | 181° |
| 2026-04-25 13:28 | 45.41483 | 5.16782 | 19442 ft | 407 kts | 182° |
| 2026-04-25 13:28 | 45.40566 | 5.16769 | 19629 ft | 408 kts | 182° |
| 2026-04-25 13:28 | 45.35786 | 5.16700 | 20604 ft | 412 kts | 182° |
| 2026-04-25 13:28 | 45.32908 | 5.16659 | 21185 ft | 415 kts | 182° |
| 2026-04-25 13:29 | 45.30015 | 5.16619 | 21743 ft | 418 kts | 182° |
| 2026-04-25 13:29 | 45.27101 | 5.16578 | 22291 ft | 420 kts | 182° |
| 2026-04-25 13:29 | 45.24169 | 5.16534 | 22832 ft | 423 kts | 182° |
| 2026-04-25 13:30 | 45.18241 | 5.16446 | 23858 ft | 428 kts | 182° |
| 2026-04-25 13:30 | 45.15251 | 5.16402 | 24296 ft | 431 kts | 182° |
| 2026-04-25 13:30 | 45.12249 | 5.16363 | 24726 ft | 433 kts | 182° |
| 2026-04-25 13:31 | 45.06366 | 5.16782 | 25551 ft | 438 kts | 177° |
| 2026-04-25 13:31 | 45.03323 | 5.17131 | 25990 ft | 440 kts | 177° |
| 2026-04-25 13:31 | 45.00268 | 5.17477 | 26424 ft | 442 kts | 177° |
| 2026-04-25 13:31 | 44.97188 | 5.17818 | 26847 ft | 444 kts | 177° |
| 2026-04-25 13:32 | 44.94163 | 5.18147 | 27251 ft | 446 kts | 178° |
| 2026-04-25 13:32 | 44.91060 | 5.18479 | 27661 ft | 448 kts | 178° |
| 2026-04-25 13:32 | 44.87946 | 5.18815 | 28073 ft | 450 kts | 178° |
| 2026-04-25 13:32 | 44.84810 | 5.19161 | 28457 ft | 452 kts | 178° |
| 2026-04-25 13:33 | 44.81697 | 5.19509 | 28847 ft | 454 kts | 177° |
| 2026-04-25 13:33 | 44.78541 | 5.19865 | 29222 ft | 456 kts | 177° |
| 2026-04-25 13:33 | 44.75373 | 5.20220 | 29599 ft | 458 kts | 178° |
| 2026-04-25 13:33 | 44.74385 | 5.20329 | 29713 ft | 458 kts | 178° |
| 2026-04-25 13:34 | 44.69098 | 5.21142 | 30271 ft | 463 kts | 169° |
| 2026-04-25 13:34 | 44.66000 | 5.22438 | 30570 ft | 468 kts | 160° |
| 2026-04-25 13:34 | 44.63074 | 5.24474 | 30859 ft | 471 kts | 149° |
| 2026-04-25 13:34 | 44.60433 | 5.27206 | 31247 ft | 472 kts | 139° |
| 2026-04-25 13:35 | 44.58223 | 5.30383 | 31637 ft | 472 kts | 132° |
| 2026-04-25 13:35 | 44.56053 | 5.33840 | 32032 ft | 471 kts | 133° |
| 2026-04-25 13:35 | 44.54617 | 5.36119 | 32304 ft | 470 kts | 133° |
| 2026-04-25 13:35 | 44.51722 | 5.40704 | 32860 ft | 469 kts | 133° |
| 2026-04-25 13:36 | 44.50367 | 5.42848 | 33117 ft | 468 kts | 133° |
| 2026-04-25 13:36 | 44.48212 | 5.46255 | 33530 ft | 467 kts | 133° |
| 2026-04-25 13:36 | 44.46061 | 5.49649 | 33948 ft | 466 kts | 133° |
| 2026-04-25 13:36 | 44.43911 | 5.53034 | 34317 ft | 465 kts | 133° |
| 2026-04-25 13:37 | 44.41764 | 5.56415 | 34661 ft | 464 kts | 133° |
| 2026-04-25 13:37 | 44.39622 | 5.59787 | 34974 ft | 464 kts | 133° |
| 2026-04-25 13:37 | 44.37563 | 5.63248 | 35055 ft | 463 kts | 127° |
| 2026-04-25 13:38 | 44.34013 | 5.70587 | 35064 ft | 462 kts | 125° |
| 2026-04-25 13:38 | 44.30420 | 5.78004 | 35057 ft | 460 kts | 125° |
| 2026-04-25 13:39 | 44.27820 | 5.83352 | 35057 ft | 460 kts | 125° |
| 2026-04-25 13:39 | 44.24216 | 5.90722 | 35055 ft | 459 kts | 126° |
| 2026-04-25 13:40 | 44.20613 | 5.98063 | 35049 ft | 459 kts | 126° |
| 2026-04-25 13:40 | 44.17088 | 6.05242 | 35052 ft | 458 kts | 125° |
| 2026-04-25 13:41 | 44.13492 | 6.12575 | 35057 ft | 458 kts | 125° |
| 2026-04-25 13:41 | 44.09888 | 6.19904 | 35057 ft | 459 kts | 126° |
| 2026-04-25 13:42 | 44.06278 | 6.27220 | 35060 ft | 459 kts | 126° |
| 2026-04-25 13:42 | 44.02673 | 6.34496 | 35060 ft | 459 kts | 126° |
| 2026-04-25 13:43 | 43.99065 | 6.41756 | 35063 ft | 460 kts | 126° |
| 2026-04-25 13:43 | 43.95463 | 6.49000 | 35072 ft | 460 kts | 126° |
| 2026-04-25 13:44 | 43.91828 | 6.56297 | 35077 ft | 460 kts | 126° |
| 2026-04-25 13:44 | 43.88185 | 6.63587 | 35077 ft | 460 kts | 126° |
| 2026-04-25 13:45 | 43.85127 | 6.69682 | 35078 ft | 459 kts | 126° |
| 2026-04-25 13:45 | 43.80978 | 6.77931 | 35085 ft | 459 kts | 126° |
| 2026-04-25 13:46 | 43.77324 | 6.85177 | 35094 ft | 459 kts | 126° |
| 2026-04-25 13:46 | 43.73703 | 6.92339 | 35101 ft | 459 kts | 126° |
| 2026-04-25 13:47 | 43.69760 | 6.99244 | 35106 ft | 457 kts | 132° |
| 2026-04-25 13:47 | 43.65660 | 7.05824 | 35113 ft | 457 kts | 131° |
| 2026-04-25 13:48 | 43.61514 | 7.12473 | 35121 ft | 457 kts | 131° |
| 2026-04-25 13:48 | 43.57391 | 7.19051 | 35126 ft | 456 kts | 131° |
| 2026-04-25 13:49 | 43.53841 | 7.26279 | 35126 ft | 457 kts | 115° |
| 2026-04-25 13:49 | 43.51240 | 7.34208 | 35122 ft | 457 kts | 115° |
| 2026-04-25 13:50 | 43.48615 | 7.42165 | 35119 ft | 456 kts | 115° |
| 2026-04-25 13:50 | 43.45989 | 7.50106 | 35112 ft | 456 kts | 115° |
| 2026-04-25 13:51 | 43.43362 | 7.58045 | 35112 ft | 456 kts | 115° |
| 2026-04-25 13:51 | 43.40734 | 7.65951 | 35109 ft | 456 kts | 115° |
| 2026-04-25 13:52 | 43.38092 | 7.73890 | 35106 ft | 456 kts | 115° |
| 2026-04-25 13:52 | 43.36769 | 7.77856 | 34993 ft | 458 kts | 115° |
| 2026-04-25 13:52 | 43.35436 | 7.81836 | 34505 ft | 458 kts | 115° |
| 2026-04-25 13:52 | 43.34103 | 7.85805 | 34019 ft | 458 kts | 115° |
| 2026-04-25 13:53 | 43.32766 | 7.89782 | 33474 ft | 459 kts | 115° |
| 2026-04-25 13:53 | 43.31452 | 7.93681 | 32951 ft | 460 kts | 115° |
| 2026-04-25 13:53 | 43.30106 | 7.97679 | 32360 ft | 461 kts | 115° |
| 2026-04-25 13:53 | 43.28763 | 8.01674 | 31651 ft | 462 kts | 115° |
| 2026-04-25 13:54 | 43.27415 | 8.05679 | 30901 ft | 463 kts | 115° |
| 2026-04-25 13:54 | 43.26064 | 8.09683 | 30116 ft | 462 kts | 115° |
| 2026-04-25 13:54 | 43.24710 | 8.13681 | 29217 ft | 461 kts | 115° |
| 2026-04-25 13:54 | 43.23359 | 8.17656 | 28354 ft | 459 kts | 115° |
| 2026-04-25 13:55 | 43.22011 | 8.21610 | 27597 ft | 456 kts | 115° |
| 2026-04-25 13:55 | 43.20676 | 8.25526 | 26888 ft | 452 kts | 115° |
| 2026-04-25 13:55 | 43.19349 | 8.29419 | 26190 ft | 449 kts | 115° |
| 2026-04-25 13:55 | 43.18032 | 8.33284 | 25489 ft | 446 kts | 115° |
| 2026-04-25 13:56 | 43.16724 | 8.37119 | 24830 ft | 443 kts | 115° |
| 2026-04-25 13:56 | 43.15432 | 8.40907 | 24181 ft | 439 kts | 115° |
| 2026-04-25 13:56 | 43.14410 | 8.44831 | 23536 ft | 437 kts | 105° |
| 2026-04-25 13:56 | 43.13813 | 8.48884 | 22871 ft | 432 kts | 101° |
| 2026-04-25 13:57 | 43.13260 | 8.52911 | 22240 ft | 428 kts | 101° |
| 2026-04-25 13:57 | 43.12892 | 8.55551 | 21825 ft | 425 kts | 101° |
| 2026-04-25 13:57 | 43.12148 | 8.60837 | 21008 ft | 420 kts | 102° |
| 2026-04-25 13:57 | 43.11596 | 8.64742 | 20454 ft | 416 kts | 102° |
| 2026-04-25 13:58 | 43.11053 | 8.68587 | 20161 ft | 405 kts | 102° |
| 2026-04-25 13:58 | 43.10530 | 8.72289 | 20090 ft | 400 kts | 102° |
| 2026-04-25 13:58 | 43.10002 | 8.76022 | 19565 ft | 399 kts | 102° |
| 2026-04-25 13:58 | 43.09477 | 8.79745 | 19011 ft | 397 kts | 102° |
| 2026-04-25 13:59 | 43.08955 | 8.83443 | 18489 ft | 395 kts | 102° |
| 2026-04-25 13:59 | 43.08429 | 8.87132 | 17803 ft | 395 kts | 103° |
| 2026-04-25 13:59 | 43.07901 | 8.90826 | 17102 ft | 396 kts | 102° |
| 2026-04-25 13:59 | 43.07372 | 8.94527 | 16411 ft | 397 kts | 102° |
| 2026-04-25 14:00 | 43.07200 | 8.95730 | 16193 ft | 397 kts | 102° |
| 2026-04-25 14:00 | 43.06314 | 9.01904 | 15082 ft | 397 kts | 102° |
| 2026-04-25 14:00 | 43.05781 | 9.05609 | 14447 ft | 397 kts | 102° |
| 2026-04-25 14:00 | 43.05165 | 9.09283 | 13796 ft | 396 kts | 108° |
| 2026-04-25 14:01 | 43.04310 | 9.12848 | 13116 ft | 394 kts | 109° |
| 2026-04-25 14:01 | 43.03466 | 9.16350 | 12508 ft | 390 kts | 109° |
| 2026-04-25 14:01 | 43.02621 | 9.19855 | 11902 ft | 387 kts | 109° |
| 2026-04-25 14:01 | 43.01782 | 9.23329 | 11340 ft | 382 kts | 109° |
| 2026-04-25 14:02 | 43.00966 | 9.26709 | 10795 ft | 365 kts | 109° |
| 2026-04-25 14:02 | 43.00233 | 9.29744 | 10302 ft | 348 kts | 109° |
| 2026-04-25 14:02 | 42.99495 | 9.32801 | 9855 ft | 331 kts | 109° |
| 2026-04-25 14:02 | 42.99264 | 9.33759 | 9713 ft | 325 kts | 109° |
| 2026-04-25 14:03 | 42.98148 | 9.38396 | 9198 ft | 298 kts | 109° |
| 2026-04-25 14:03 | 42.97525 | 9.40975 | 8887 ft | 283 kts | 109° |
| 2026-04-25 14:03 | 42.97005 | 9.43117 | 8643 ft | 272 kts | 109° |
| 2026-04-25 14:03 | 42.96422 | 9.45503 | 8396 ft | 261 kts | 109° |
| 2026-04-25 14:04 | 42.95850 | 9.47833 | 8145 ft | 257 kts | 109° |
| 2026-04-25 14:04 | 42.95298 | 9.50078 | 7900 ft | 252 kts | 109° |
| 2026-04-25 14:04 | 42.94747 | 9.52328 | 7657 ft | 248 kts | 109° |
| 2026-04-25 14:04 | 42.94202 | 9.54551 | 7408 ft | 246 kts | 110° |
| 2026-04-25 14:05 | 42.93632 | 9.56745 | 7177 ft | 244 kts | 118° |
| 2026-04-25 14:05 | 42.92580 | 9.58499 | 7010 ft | 239 kts | 147° |
| 2026-04-25 14:05 | 42.91084 | 9.59363 | 6842 ft | 233 kts | 175° |
| 2026-04-25 14:05 | 42.89501 | 9.59209 | 6686 ft | 228 kts | 198° |
| 2026-04-25 14:06 | 42.87970 | 9.58640 | 6439 ft | 228 kts | 198° |
| 2026-04-25 14:06 | 42.86468 | 9.58086 | 6181 ft | 224 kts | 198° |
| 2026-04-25 14:06 | 42.84968 | 9.57526 | 5853 ft | 223 kts | 201° |
| 2026-04-25 14:06 | 42.83581 | 9.56677 | 5487 ft | 215 kts | 209° |
| 2026-04-25 14:07 | 42.82256 | 9.55781 | 5118 ft | 210 kts | 208° |
| 2026-04-25 14:07 | 42.80966 | 9.54915 | 4832 ft | 204 kts | 208° |
| 2026-04-25 14:07 | 42.79696 | 9.54062 | 4580 ft | 204 kts | 208° |
| 2026-04-25 14:07 | 42.78427 | 9.53212 | 4320 ft | 203 kts | 208° |
| 2026-04-25 14:08 | 42.77160 | 9.52362 | 4070 ft | 203 kts | 208° |
| 2026-04-25 14:08 | 42.75884 | 9.51505 | 3767 ft | 206 kts | 207° |
| 2026-04-25 14:08 | 42.74601 | 9.50648 | 3487 ft | 202 kts | 207° |
| 2026-04-25 14:08 | 42.73378 | 9.49833 | 3194 ft | 191 kts | 207° |
| 2026-04-25 14:09 | 42.72215 | 9.49056 | 2882 ft | 181 kts | 207° |
| 2026-04-25 14:09 | 42.71165 | 9.48352 | 2698 ft | 175 kts | 207° |
| 2026-04-25 14:09 | 42.70111 | 9.47646 | 2624 ft | 163 kts | 207° |
| 2026-04-25 14:09 | 42.69771 | 9.47419 | 2595 ft | 160 kts | 207° |
| 2026-04-25 14:10 | 42.68122 | 9.46600 | 2488 ft | 146 kts | 188° |
| 2026-04-25 14:10 | 42.67121 | 9.46603 | 2259 ft | 143 kts | 178° |
| 2026-04-25 14:10 | 42.66136 | 9.46675 | 2054 ft | 141 kts | 177° |
| 2026-04-25 14:10 | 42.65155 | 9.46744 | 1852 ft | 141 kts | 177° |
| 2026-04-25 14:11 | 42.64179 | 9.46814 | 1652 ft | 140 kts | 176° |
| 2026-04-25 14:11 | 42.63223 | 9.46882 | 1460 ft | 139 kts | 176° |
| 2026-04-25 14:11 | 42.62261 | 9.46950 | 1278 ft | 138 kts | 176° |
| 2026-04-25 14:11 | 42.61314 | 9.47016 | 1083 ft | 135 kts | 175° |
| 2026-04-25 14:12 | 42.60378 | 9.47081 | 890 ft | 134 kts | 174° |
| 2026-04-25 14:12 | 42.59467 | 9.47143 | 703 ft | 133 kts | 174° |
| 2026-04-25 14:12 | 42.58544 | 9.47203 | 514 ft | 132 kts | 173° |
| 2026-04-25 14:12 | 42.57634 | 9.47369 | 381 ft | 132 kts | 164° |
| 2026-04-25 14:13 | 42.56768 | 9.47737 | 240 ft | 129 kts | 157° |
| 2026-04-25 14:13 | 42.55909 | 9.48105 | 44 ft | 129 kts | 160° |
| 2026-04-25 14:13 | 42.55152 | 9.48424 | 36 ft | 93 kts | 163° |
| 2026-04-25 14:13 | 42.54699 | 9.48624 | 34 ft | 44 kts | 164° |
| 2026-04-25 14:14 | 42.54433 | 9.48728 | 34 ft | 37 kts | 164° |
| 2026-04-25 14:14 | 42.54252 | 9.48798 | 35 ft | 13 kts | 165° |
| 2026-04-25 14:14 | 42.54167 | 9.48760 | 34 ft | 13 kts | 223° |
| 2026-04-25 14:14 | 42.54127 | 9.48656 | 34 ft | 12 kts | 259° |
| 2026-04-25 14:15 | 42.54145 | 9.48553 | 35 ft | 11 kts | 303° |
| 2026-04-25 14:15 | 42.54162 | 9.48527 | 35 ft | 11 kts | 317° |
| 2026-04-25 14:15 | 42.54269 | 9.48472 | 35 ft | 9 kts | 342° |
| 2026-04-25 14:15 | 42.54328 | 9.48447 | 35 ft | 9 kts | 342° |
| 2026-04-25 14:16 | 42.54380 | 9.48425 | 34 ft | 8 kts | 342° |
| 2026-04-25 14:16 | 42.54452 | 9.48420 | 35 ft | 11 kts | 5° |
| 2026-04-25 14:16 | 42.54524 | 9.48408 | 34 ft | 10 kts | 343° |
| 2026-04-25 14:16 | 42.54588 | 9.48381 | 35 ft | 9 kts | 342° |
| 2026-04-25 14:17 | 42.54649 | 9.48355 | 35 ft | 11 kts | 342° |
| 2026-04-25 14:17 | 42.54719 | 9.48326 | 35 ft | 10 kts | 342° |
| 2026-04-25 14:17 | 42.54784 | 9.48298 | 33 ft | 9 kts | 341° |
| 2026-04-25 14:17 | 42.54791 | 9.48232 | 35 ft | 7 kts | 252° |
| 2026-04-25 14:18 | 42.54779 | 9.48180 | 33 ft | 0 kts | 252° |
| 2026-04-25 14:18 | 42.54778 | 9.48179 | 33 ft | 0 kts | 252° |